Terminal Aerodrome Forecast
Issued by NWS San Angelo, TX

Home | Current Version | Previous Version | Text Only | Print | Product List | Glossary On
Versions: 1 2 3 4 5 6 7 8 9 10 11 12 13 14 15 16
489
FTUS44 KSJT 220520
TAFABI
TAF
KABI 220520Z 2206/2306 15012KT P6SM SKC
     FM220900 17012KT P6SM BKN015
     FM221200 17014G18KT P6SM OVC012
     FM221500 17013KT P6SM OVC010
     FM222100 15012KT P6SM SKC=

USA.gov is the U.S. government's official web portal to all federal, state and local government web resources and services.